Home > Products > Valid Products > TAF

000
FTUS43 KDLH 230700 AAA
TAFBRD
TAF AMD
KBRD 230701Z 2307/2406 05003KT 6SM BR BKN020
      TEMPO 2307/2309 1 1/2SM BR BKN007
     FM230900 00000KT 1SM BR BKN005
      TEMPO 2309/2312 1/2SM FG VV002
     FM231600 07005KT P6SM SCT015
     FM232000 07007KT P6SM BKN045
     FM240400 12007KT P6SM BKN015=



000
FTUS43 KDLH 230600 AAA
TAFDLH
TAF AMD
KDLH 230600Z 2306/2406 08005KT 6SM BR SCT006
      TEMPO 2308/2312 1/2SM FG BKN002
     FM231600 09009KT 1 1/2SM BR OVC004
     FM231800 08009KT 3SM BR BKN006 OVC013
     FM232100 08009KT 5SM BR SCT006 BKN013
      TEMPO 2321/2324 P6SM NSW SCT013 BKN025
     FM240300 08008KT 1SM BR OVC004=



000
FTUS43 KDLH 230500
TAFHYR
TAF
KHYR 230540Z 2306/2406 03004KT P6SM BKN007 OVC028
      TEMPO 2306/2309 5SM BR SCT010 OVC028
     FM230900 00000KT 3SM BR OVC010
      TEMPO 2309/2313 1SM BR OVC006
     FM231600 08005KT 6SM BR OVC013
     FM232100 08004KT P6SM BKN030
     FM240400 13004KT 5SM BR BKN010=



000
FTUS43 KDLH 230500
TAFINL
TAF
KINL 230540Z 2306/2406 VRB03KT P6SM SCT025 BKN050
      TEMPO 2306/2308 BKN025 OVC050
     FM230800 00000KT 5SM BR BKN025
     FM231000 00000KT 3SM BR OVC015
      TEMPO 2310/2313 1SM BR OVC005
     FM231600 10005KT P6SM BKN025
     FM231900 10008KT P6SM BKN045=



000
FTUS43 KDLH 230500
TAFBRD
TAF
KBRD 230540Z 2306/2406 05003KT 6SM BR SCT050
      TEMPO 2306/2309 1 1/2SM BR BKN006
     FM230900 00000KT 1SM BR BKN005
      TEMPO 2309/2312 1/2SM FG VV002
     FM231600 07005KT P6SM SCT015
     FM232000 07007KT P6SM BKN045
     FM240400 12007KT P6SM BKN015=



000
FTUS43 KDLH 230500
TAFDLH
TAF
KDLH 230540Z 2306/2406 08005KT 1/2SM FG VV002
      TEMPO 2306/2310 2SM BR BKN004
     FM231600 09009KT 1 1/2SM BR OVC004
     FM231800 08009KT 3SM BR BKN006 OVC013
     FM232100 08009KT 5SM BR SCT006 BKN013
      TEMPO 2321/2324 P6SM NSW SCT013 BKN025
     FM240300 08008KT 1SM BR OVC004=



000
FTUS43 KDLH 230400 AAC
TAFHYR
TAF AMD
KHYR 230424Z 2304/2324 03004KT P6SM BKN009 OVC028
      TEMPO 2305/2309 5SM BR SCT009 OVC028
     FM230900 00000KT 3SM BR OVC010
      TEMPO 2309/2313 1SM BR OVC006
     FM231600 08005KT 6SM BR OVC013
     FM232100 08004KT P6SM BKN030=



000
FTUS43 KDLH 230300 AAB
TAFHYR
TAF AMD
KHYR 230356Z 2304/2324 05004KT P6SM SCT010 OVC028
      TEMPO 2305/2309 5SM BR BKN010 OVC025
     FM230900 00000KT 3SM BR OVC010
      TEMPO 2309/2313 1SM BR OVC006
     FM231600 08005KT 6SM BR OVC013
     FM232100 08004KT P6SM BKN030=



000
FTUS43 KDLH 230200 AAA
TAFDLH
TAF AMD
KDLH 230208Z 2302/2324 10005KT 3/4SM BR OVC003
      TEMPO 2302/2304 1/4SM -RA FG VV002
     FM230400 09006KT 1/4SM FG VV002
     FM231600 09009KT 1 1/2SM BR OVC005
     FM231800 08010KT 3SM BR BKN006 OVC013
     FM232200 08009KT 5SM BR SCT006 BKN013=



000
FTUS43 KDLH 230100 AAB
TAFDLH
TAF AMD
KDLH 230131Z 2302/2324 10005KT 3/4SM BR OVC003
      TEMPO 2302/2304 1/2SM FG OVC002
     FM230400 09006KT 1/2SM FG OVC003
     FM230600 09007KT 1/4SM FG VV003
     FM231600 09009KT 1 1/2SM BR OVC005
     FM231800 08010KT 3SM BR BKN006 OVC013
     FM232200 08009KT 5SM BR SCT006 BKN013=



000
FTUS43 KDLH 230000 AAA
TAFDLH
TAF AMD
KDLH 230059Z 2301/2324 10005KT 1 1/2SM BR BKN003 OVC010
      TEMPO 2301/2303 1/2SM FG SCT003 OVC010
     FM230300 09006KT 3/4SM BR OVC003
     FM230600 09007KT 1/4SM FG VV003
     FM231600 09009KT 1 1/2SM BR OVC005
     FM231800 08010KT 3SM BR BKN006 OVC013
     FM232200 08009KT 5SM BR SCT006 BKN013=



000
FTUS43 KDLH 230000 AAA
TAFHYR
TAF AMD
KHYR 230031Z 2301/2324 03006KT P6SM OVC015
      TEMPO 2301/2303 OVC008
     FM230400 00000KT 5SM BR OVC008
     FM230800 00000KT 1 1/2SM BR OVC004
     FM231600 08005KT 6SM BR OVC013
     FM232200 08004KT P6SM OVC020=



000
FTUS43 KDLH 222300
TAFBRD
TAF
KBRD 222338Z 2300/2324 VRB03KT P6SM SCT025
     FM230500 05003KT 5SM BR SCT030
     FM230800 00000KT 1SM BR OVC003
      TEMPO 2308/2312 1/2SM FG VV002
     FM231600 07005KT P6SM BKN015
     FM232000 07007KT P6SM BKN045=



000
FTUS43 KDLH 222300
TAFHYR
TAF
KHYR 222338Z 2300/2324 03006KT P6SM OVC015
     FM230400 00000KT 5SM BR OVC010
     FM230800 00000KT 1 1/2SM BR OVC004
     FM231600 08005KT 6SM BR OVC013
     FM232200 08004KT P6SM OVC020=



000
FTUS43 KDLH 222300
TAFDLH
TAF
KDLH 222338Z 2300/2324 12005KT P6SM BKN007 OVC017
      TEMPO 2300/2303 4SM BR SCT007 OVC017
     FM230300 09006KT 1 1/2SM BR BKN005 OVC010
     FM230600 09007KT 1/4SM FG VV003
     FM231600 09009KT 1 1/2SM BR OVC005
     FM231800 08010KT 3SM BR BKN006 OVC013
     FM232200 08009KT 5SM BR SCT006 BKN013=



000
FTUS43 KDLH 222300
TAFINL
TAF
KINL 222338Z 2300/2324 02005KT P6SM SCT030 BKN060
      TEMPO 2300/2302 -SHRA BKN030 OVC045
     FM230500 VRB03KT P6SM BKN018 OVC025
     FM230700 00000KT 5SM BR BKN015
     FM231000 00000KT 3SM BR OVC008
      TEMPO 2310/2313 1SM BR OVC005
     FM231600 10005KT P6SM OVC015
     FM231900 10008KT P6SM BKN035=



000
FTUS43 KDLH 222200 AAC
TAFDLH
TAF AMD
KDLH 222243Z 2223/2318 10006KT 6SM BR SCT006 OVC013
      TEMPO 2223/2302 3SM BR BKN006 OVC012
     FM230200 07006KT 1 1/2SM BR OVC004
     FM230400 08007KT 1/4SM FG VV002
     FM231700 09009KT 4SM BR OVC004=



000
FTUS43 KDLH 222200 AAB
TAFDLH
TAF AMD
KDLH 222205Z 2222/2318 10006KT 6SM BR SCT006 OVC013
      TEMPO 2300/2302 3SM BR BKN006 OVC012
     FM230200 07006KT 1 1/2SM BR OVC004
     FM230400 08007KT 1/4SM FG VV002
     FM231700 09009KT 4SM BR OVC004=



000
FTUS43 KDLH 222100 AAA
TAFDLH
TAF AMD
KDLH 222123Z 2221/2318 10006KT 5SM BR BKN006 OVC012
      TEMPO 2222/2301 3SM BR SCT006 OVC012
     FM230200 07006KT 1 1/2SM BR OVC004
     FM230400 08007KT 1/4SM FG VV002
     FM231700 09009KT 4SM BR OVC004=



000
FTUS43 KDLH 222100 AAB
TAFBRD
TAF AMD
KBRD 222120Z 2221/2318 VRB03KT P6SM SCT025
      TEMPO 2221/2301 BKN025
     FM230500 05003KT 5SM BR SCT035
     FM230800 00000KT 1 1/2SM BR OVC003
     FM231600 06007KT P6SM OVC015=



000
FTUS43 KDLH 222100 AAB
TAFINL
TAF AMD
KINL 222117Z 2221/2318 02005KT P6SM BKN027
      TEMPO 2223/2303 SCT027 BKN045
     FM230400 VRB03KT P6SM BKN018 OVC025
     FM230700 00000KT 5SM BR BKN015
     FM231000 00000KT 2SM BR OVC004
     FM231600 07005KT P6SM OVC015=



000
FTUS43 KDLH 222000 AAB
TAFHYR
TAF AMD
KHYR 222018Z 2220/2318 03006KT P6SM OVC012
     FM230300 00000KT 5SM BR SCT015
     FM230700 00000KT 1 1/2SM BR OVC003
     FM231600 10005KT 6SM BR OVC015=



000
FTUS43 KDLH 222000 AAA
TAFINL
TAF AMD
KINL 222018Z 2220/2318 36007KT P6SM OVC021
     FM222100 33004KT P6SM SCT040
     FM230700 00000KT 5SM BR BKN015
     FM231000 00000KT 2SM BR OVC004
     FM231600 07005KT P6SM OVC015=



000
FTUS43 KDLH 221900 AAA
TAFDLH
TAF AMD
KDLH 221923Z 2219/2318 17005KT 1SM BR OVC002
     FM222100 09008KT 2SM BR OVC004
     FM230200 07006KT 1 1/2SM BR OVC004
     FM230400 08007KT 1/4SM FG VV002
     FM231700 09009KT 4SM BR OVC004=



000
FTUS43 KDLH 221800 AAA
TAFHYR
TAF AMD
KHYR 221801Z 2218/2318 02004KT P6SM OVC008
     FM221900 01004KT P6SM BKN015
     FM222000 01004KT P6SM SCT025
     FM230300 00000KT 5SM BR SCT015
     FM230700 00000KT 1 1/2SM BR OVC003
     FM231600 10005KT 6SM BR OVC015=



000
FTUS43 KDLH 221800 AAA
TAFBRD
TAF AMD
KBRD 221801Z 2218/2318 23003KT P6SM OVC012
     FM222000 02004KT P6SM BKN015
     FM230500 05003KT 5SM BR SCT035
     FM230800 00000KT 1 1/2SM BR OVC003
     FM231600 06007KT P6SM OVC015=



000
FTUS43 KDLH 221700
TAFBRD
TAF
KBRD 221736Z 2218/2318 VRB03KT P6SM OVC007
     FM222000 02004KT P6SM BKN015
     FM230500 05003KT 5SM BR SCT035
     FM230800 00000KT 1 1/2SM BR OVC003
     FM231600 06007KT P6SM OVC015=



000
FTUS43 KDLH 221700
TAFINL
TAF
KINL 221736Z 2218/2318 07005KT P6SM OVC015
     FM221900 07005KT P6SM SCT015 BKN035
     FM222100 33004KT P6SM SCT040
     FM230700 00000KT 5SM BR BKN015
     FM231000 00000KT 2SM BR OVC004
     FM231600 07005KT P6SM OVC015=



000
FTUS43 KDLH 221700
TAFHYR
TAF
KHYR 221736Z 2218/2318 04004KT P6SM OVC006
     FM221900 01004KT P6SM BKN015
     FM222000 01004KT P6SM SCT025
     FM230300 00000KT 5SM BR SCT015
     FM230700 00000KT 1 1/2SM BR OVC003
     FM231600 10005KT 6SM BR OVC015=



000
FTUS43 KDLH 221700
TAFDLH
TAF
KDLH 221736Z 2218/2318 12004KT 3SM BR OVC002
      TEMPO 2218/2219 1SM BR OVC004
     FM221900 08007KT 4SM BR OVC007
     FM222100 09008KT 5SM BR OVC010
     FM230200 07006KT 1 1/2SM BR OVC004
     FM230400 08007KT 1/4SM FG VV002
     FM231700 09009KT 4SM BR OVC004=



000
FTUS43 KDLH 221600 AAB
TAFINL
TAF AMD
KINL 221654Z 2217/2312 07005KT P6SM OVC011
     FM221900 07005KT P6SM SCT015 BKN035
     FM222100 33004KT P6SM SCT040
     FM230700 00000KT 5SM BR BKN015
     FM231000 00000KT 2SM BR OVC004=



000
FTUS43 KDLH 221600 AAC
TAFDLH
TAF AMD
KDLH 221654Z 2217/2312 12004KT 1/4SM FG OVC002
     FM221900 08007KT 2SM BR OVC007
     FM222100 10007KT 4SM BR OVC010
     FM230200 07005KT 4SM BR OVC012
     FM230700 08004KT 3SM BR OVC004=



000
FTUS43 KDLH 221500 AAA
TAFINL
TAF AMD
KINL 221546Z 2216/2312 07005KT P6SM VCSH OVC010
     FM221700 VRB03KT P6SM SCT015 OVC035
     FM222100 33004KT P6SM SCT040
     FM230700 00000KT 5SM BR BKN015
     FM231000 00000KT 2SM BR OVC004=



000
FTUS43 KDLH 221500 AAB
TAFDLH
TAF AMD
KDLH 221523Z 2215/2312 10005KT 1/4SM FG VCSH VV002
     FM221700 08007KT 3SM BR OVC005
     FM221900 08007KT 6SM BR OVC015
     FM222000 10007KT P6SM BKN020
     FM230200 07005KT 4SM BR OVC012
     FM230700 08004KT 3SM BR OVC004=



000
FTUS43 KDLH 221400 AAA
TAFDLH
TAF AMD
KDLH 221455Z 2215/2312 08005KT 1/2SM FG VCSH OVC002
     FM221700 08007KT 3SM BR OVC005
     FM221900 08007KT 6SM BR OVC015
     FM222000 10007KT P6SM BKN020
     FM230200 07005KT 4SM BR OVC012
     FM230700 08004KT 3SM BR OVC004=



000
FTUS43 KDLH 221400 AAB
TAFHYR
TAF AMD
KHYR 221455Z 2215/2312 04004KT 5SM BR OVC005
     FM221900 01004KT P6SM BKN015
     FM222000 01004KT P6SM SCT025
     FM230300 00000KT 5SM BR SCT015
     FM230700 00000KT 2SM BR OVC003=



000
FTUS43 KDLH 221300 AAA
TAFBRD
TAF AMD
KBRD 221338Z 2214/2312 01004KT 2SM BR OVC003
     FM221700 VRB03KT P6SM BKN012 BKN050
     FM222000 02004KT P6SM SCT050
     FM230500 05003KT 5SM BR SCT035
     FM230800 00000KT 2SM BR OVC003=



000
FTUS43 KDLH 221300 AAA
TAFHYR
TAF AMD
KHYR 221338Z 2214/2312 04004KT 2SM BR OVC003
     FM221500 00000KT P6SM OVC006
     FM221900 01004KT P6SM BKN015
     FM222000 01004KT P6SM SCT025
     FM230300 00000KT 5SM BR SCT015
     FM230700 00000KT 2SM BR OVC003=



000
FTUS43 KDLH 221100 RRA
TAFDLH
TAF
KDLH 221141Z 2212/2312 00000KT 1/4SM -DZ FG VCSH OVC002
      TEMPO 2212/2214 2SM BR OVC004
     FM221400 06004KT 5SM BR VCSH OVC008
     FM221800 08007KT P6SM OVC015
     FM222000 10007KT P6SM BKN025
     FM230200 07005KT 4SM BR OVC012
     FM230700 08004KT 3SM BR OVC004=



000
FTUS43 KDLH 221100 RRA
TAFBRD
TAF
KBRD 221141Z 2212/2312 00000KT 4SM BR OVC003
      TEMPO 2212/2213 1SM BR VV002
     FM221700 VRB03KT P6SM BKN012 BKN050
     FM222000 02004KT P6SM SCT050
     FM230500 05003KT 5SM BR SCT035
     FM230800 00000KT 2SM BR OVC003=



000
FTUS43 KDLH 221100 RRA
TAFHYR
TAF
KHYR 221141Z 2212/2312 00000KT 5SM BR OVC004
      TEMPO 2212/2214 1SM BR VV002
     FM221500 00000KT P6SM OVC006
     FM221900 01004KT P6SM BKN015
     FM222000 01004KT P6SM SCT025
     FM230300 00000KT 5SM BR SCT015
     FM230700 00000KT 2SM BR OVC003=



000
FTUS43 KDLH 221100 RRA
TAFINL
TAF
KINL 221141Z 2212/2312 10003KT P6SM VCSH OVC015
     FM221600 VRB03KT P6SM SCT015 OVC035
     FM222100 33004KT P6SM SCT040
     FM230700 00000KT 5SM BR BKN015
     FM231000 00000KT 2SM BR OVC004=



000
FTUS43 KDLH 220900 AAA
TAFHYR
TAF AMD
KHYR 220922Z 2209/2306 VRB02KT 6SM BR OVC006
      TEMPO 2209/2212 1SM BR VV004
     FM221500 VRB03KT 5SM BR OVC008
     FM221700 05003KT P6SM OVC015
     FM222000 05004KT P6SM BKN030
     FM230400 VRB02KT 6SM BR OVC013=



000
FTUS43 KDLH 220900 AAA
TAFBRD
TAF AMD
KBRD 220921Z 2209/2306 VRB03KT 4SM BR OVC004
      TEMPO 2209/2212 1SM BR VV002
     FM221500 VRB03KT 6SM BR OVC010
     FM221700 02003KT P6SM BKN022
     FM221900 02004KT P6SM BKN050=



000
FTUS43 KDLH 220900 AAA
TAFINL
TAF AMD
KINL 220920Z 2209/2306 11004KT 6SM BR OVC015
      TEMPO 2209/2212 1SM BR OVC005
     FM221500 VRB03KT 6SM BR OVC008
     FM221700 33003KT P6SM BKN015
     FM222000 35004KT P6SM BKN040
     FM230500 VRB02KT P6SM BKN025=



000
FTUS43 KDLH 220900 AAA
TAFDLH
TAF AMD
KDLH 220919Z 2209/2306 07006KT 1 1/2SM -DZ BR VCSH OVC003
      TEMPO 2209/2212 1/4SM -DZ FG OVC002
     FM221500 06006KT 5SM BR OVC008
     FM221800 08007KT P6SM OVC012
     FM222100 11007KT P6SM BKN025
     FM230300 08004KT 4SM BR OVC008=



000
FTUS43 KDLH 220500
TAFBRD
TAF
KBRD 220537Z 2206/2306 VRB03KT 1 1/2SM BR OVC004
      TEMPO 2208/2212 3/4SM BR VV003
     FM221500 VRB03KT 6SM BR OVC010
     FM221700 02003KT P6SM BKN022
     FM221900 02004KT P6SM BKN050=



000
FTUS43 KDLH 220500
TAFHYR
TAF
KHYR 220537Z 2206/2306 VRB03KT P6SM VCSH OVC008
      TEMPO 2206/2208 5SM -SHRA BR OVC005
     FM220800 VRB02KT 2SM BR OVC006
      TEMPO 2209/2212 1/2SM FG VV003
     FM221500 VRB03KT 5SM BR OVC008
     FM221700 05003KT P6SM OVC015
     FM222000 05004KT P6SM BKN030
     FM230400 VRB02KT 6SM BR OVC013=



000
FTUS43 KDLH 220500
TAFINL
TAF
KINL 220537Z 2206/2306 11006KT P6SM BKN015 OVC040
     FM220800 VRB03KT 3SM BR OVC009
      TEMPO 2209/2212 3/4SM BR OVC005
     FM221500 VRB03KT 6SM BR OVC008
     FM221700 33003KT P6SM BKN015
     FM222000 35004KT P6SM BKN040
     FM230500 VRB02KT P6SM BKN025=



000
FTUS43 KDLH 220500
TAFDLH
TAF
KDLH 220537Z 2206/2306 07006KT 1 1/2SM -DZ BR VCSH OVC003
     FM220800 06006KT 3/4SM -DZ BR OVC002
     FM221500 06006KT 5SM BR OVC008
     FM221800 08007KT P6SM OVC012
     FM222100 11007KT P6SM BKN025
     FM230300 08004KT 4SM BR OVC008=



000
FTUS43 KDLH 220200 AAB
TAFHYR
TAF AMD
KHYR 220203Z 2202/2224 10004KT P6SM VCSH BKN009 BKN018 OVC040
      TEMPO 2202/2205 5SM -SHRA BR BKN018 OVC040
     FM220600 VRB02KT 1SM BR OVC006
      TEMPO 2208/2212 1/2SM FG VV003
     FM221500 VRB03KT 5SM BR OVC008
     FM221700 VRB03KT P6SM OVC015
     FM222000 VRB03KT P6SM BKN030=



000
FTUS43 KDLH 220200 AAA
TAFBRD
TAF AMD
KBRD 220202Z 2202/2224 08005KT 4SM BR VCSH OVC005
      TEMPO 2202/2206 1SM -DZ BR OVC004
     FM220600 VRB03KT 1 1/2SM BR OVC004
      TEMPO 2208/2212 3/4SM BR VV004
     FM221500 03004KT 6SM BR OVC010
     FM221700 02004KT P6SM BKN018
     FM221900 02004KT P6SM BKN050=



000
FTUS43 KDLH 220200 AAA
TAFDLH
TAF AMD
KDLH 220201Z 2202/2224 08007KT 6SM BR VCSH OVC005
      TEMPO 2202/2206 2SM -DZ BR OVC004
     FM220600 06006KT 3/4SM -DZ BR VCSH OVC004
     FM221500 06006KT 5SM BR OVC008
     FM221800 08007KT P6SM OVC012=



000
FTUS43 KDLH 220100 AAA
TAFHYR
TAF AMD
KHYR 220128Z 2201/2224 10004KT P6SM VCSH OVC020
      TEMPO 2202/2205 OVC017
     FM220600 VRB02KT 1SM BR OVC006
      TEMPO 2208/2212 1/2SM FG VV003
     FM221500 VRB03KT 5SM BR OVC008
     FM221700 VRB03KT P6SM OVC015
     FM222000 VRB03KT P6SM BKN030=



000
FTUS43 KDLH 212300
TAFHYR
TAF
KHYR 212326Z 2200/2224 10004KT P6SM VCSH OVC030
      TEMPO 2200/2203 6SM -TSRA OVC035CB
     FM220300 08003KT P6SM OVC025
     FM220600 VRB02KT 1SM BR OVC006
      TEMPO 2208/2212 1/2SM FG VV003
     FM221500 VRB03KT 5SM BR OVC008
     FM221700 VRB03KT P6SM OVC015
     FM222000 VRB03KT P6SM BKN030=



000
FTUS43 KDLH 212300
TAFDLH
TAF
KDLH 212326Z 2200/2224 08009KT P6SM VCSH OVC008
     FM220300 06009KT 4SM -DZ BR VCSH OVC006
     FM220600 06006KT 3/4SM -DZ BR VCSH OVC004
     FM221500 06006KT 5SM BR OVC008
     FM221800 08007KT P6SM OVC012=



000
FTUS43 KDLH 212300
TAFINL
TAF
KINL 212326Z 2200/2224 12007KT P6SM VCSH OVC020
     FM220300 12003KT P6SM VCSH OVC016
     FM220700 VRB02KT 2SM BR OVC006
      TEMPO 2208/2212 3/4SM BR
     FM221500 VRB03KT 6SM BR OVC008
     FM221700 06005KT P6SM BKN015
     FM222000 VRB04KT P6SM BKN040=



000
FTUS43 KDLH 212300
TAFBRD
TAF
KBRD 212326Z 2200/2224 09005KT P6SM VCSH OVC009
     FM220400 10003KT P6SM OVC007
     FM220600 VRB03KT 2SM BR OVC006
      TEMPO 2208/2212 3/4SM BR VV004
     FM221500 03004KT 6SM BR OVC010
     FM221700 02004KT P6SM BKN018
     FM221900 02004KT P6SM BKN050=



000
FTUS43 KDLH 212100 AAB
TAFHYR
TAF AMD
KHYR 212119Z 2121/2218 09007KT P6SM VCSH SCT025 BKN035
      TEMPO 2121/2123 BKN025
     FM212300 10006KT P6SM -SHRA VCTS SCT025CB OVC035
     FM220300 08003KT P6SM OVC025
     FM220600 VRB02KT 1SM BR OVC006
     FM221500 VRB03KT 5SM BR OVC008=



000
FTUS43 KDLH 212100 AAC
TAFBRD
TAF AMD
KBRD 212114Z 2121/2218 09006KT P6SM OVC011
     FM212300 09005KT P6SM -SHRA VCTS OVC013CB
     FM220300 10003KT P6SM OVC011
     FM220600 VRB03KT 2SM BR OVC006
     FM221500 35005KT 5SM BR OVC008=



000
FTUS43 KDLH 212100 AAC
TAFINL
TAF AMD
KINL 212111Z 2121/2218 12007KT P6SM VCSH OVC022
     FM212300 12005KT P6SM -SHRA VCTS OVC024CB
     FM220300 10003KT P6SM OVC020
     FM220700 VRB02KT 2SM BR OVC006
     FM221500 01003KT 5SM BR OVC008=



000
FTUS43 KDLH 212100 AAA
TAFDLH
TAF AMD
KDLH 212105Z 2121/2218 08013KT P6SM VCSH OVC011
     FM212300 09010KT P6SM -SHRA VCTS OVC015CB
     FM220300 06008KT 5SM BR OVC008
     FM220600 06006KT 1SM BR OVC006
     FM221500 35006KT 5SM BR OVC008=



000
FTUS43 KDLH 212000 AAB
TAFINL
TAF AMD
KINL 212015Z 2120/2218 11009KT P6SM VCSH BKN025 OVC035
      TEMPO 2121/2201 6SM -TSRA SCT015CB OVC025
     FM220100 14006KT P6SM BKN015
     FM220700 VRB02KT 2SM BR OVC006
     FM221500 01003KT 5SM BR OVC008=



000
FTUS43 KDLH 212000 AAB
TAFBRD
TAF AMD
KBRD 212003Z 2120/2218 09008KT P6SM OVC009
      TEMPO 2120/2121 P6SM OVC011
     FM212100 12008KT P6SM -SHRA SCT015 OVC035
      TEMPO 2121/2201 6SM -TSRA SCT015CB OVC035
     FM220100 13005KT P6SM BKN040
     FM220600 VRB03KT 2SM BR OVC006
     FM221500 35005KT 5SM BR OVC008=



000
FTUS43 KDLH 211900 AAA
TAFBRD
TAF AMD
KBRD 211902Z 2119/2218 11008KT P6SM OVC014
      TEMPO 2119/2120 2SM BR OVC006
     FM212000 14008KT P6SM -SHRA VCTS SCT015CB OVC035
     FM220100 13005KT P6SM BKN040
     FM220600 VRB03KT 2SM BR OVC006
     FM221500 35005KT 5SM BR OVC008=



000
FTUS43 KDLH 211800 AAA
TAFHYR
TAF AMD
KHYR 211830Z 2119/2218 VRB06KT P6SM VCSH SCT015 BKN045
      TEMPO 2119/2121 BKN015
     FM212100 14005KT P6SM -SHRA VCTS SCT015CB OVC035
     FM220100 VRB03KT P6SM SCT050 BKN150
     FM220600 VRB02KT 1SM BR OVC006
     FM221500 VRB03KT 5SM BR OVC008=



000
FTUS43 KDLH 211800 AAA
TAFINL
TAF AMD
KINL 211828Z 2118/2218 11009KT P6SM BKN025
      TEMPO 2118/2120 SCT025 BKN040
     FM212000 12008KT P6SM -SHRA VCTS SCT015CB BKN050
     FM220000 14006KT P6SM BKN015
     FM220700 VRB02KT 2SM BR OVC006
     FM221500 01003KT 5SM BR OVC008=



000
FTUS43 KDLH 211800 AAA
TAFDLH
TAF AMD
KDLH 211825Z 2118/2218 08012KT P6SM VCSH BKN006 OVC015
      TEMPO 2118/2121 SCT006 OVC015
     FM212100 08014KT P6SM -SHRA VCTS BKN015CB OVC035
     FM220000 06008KT 5SM -DZ BR OVC008
     FM220600 06006KT 1SM BR OVC006
     FM221500 35006KT 5SM BR OVC008=



000
FTUS43 KDLH 211700
TAFBRD
TAF
KBRD 211725Z 2118/2218 13008KT P6SM OVC014
      TEMPO 2118/2120 SCT016 BKN025
     FM212000 14008KT P6SM -SHRA VCTS SCT015CB OVC035
     FM220100 13005KT P6SM BKN040
     FM220600 VRB03KT 2SM BR OVC006
     FM221500 35005KT 5SM BR OVC008=



000
FTUS43 KDLH 211700
TAFINL
TAF
KINL 211725Z 2118/2218 11009KT P6SM BKN018 BKN040
      TEMPO 2118/2120 SCT020 BKN040
     FM212000 12008KT P6SM -SHRA VCTS SCT015CB BKN050
     FM220000 14006KT P6SM BKN015
     FM220700 VRB02KT 2SM BR OVC006
     FM221500 01003KT 5SM BR OVC008=



000
FTUS43 KDLH 211700
TAFDLH
TAF
KDLH 211725Z 2118/2218 08012KT P6SM VCSH BKN005 OVC015
      TEMPO 2118/2121 SCT005 OVC015
     FM212100 08014KT P6SM -SHRA VCTS BKN015CB OVC035
     FM220000 06008KT 5SM -DZ BR OVC008
     FM220600 06006KT 1SM BR OVC006
     FM221500 35006KT 5SM BR OVC008=



000
FTUS43 KDLH 211700
TAFHYR
TAF
KHYR 211725Z 2118/2218 VRB06KT P6SM VCSH FEW009 BKN045
     FM212100 14005KT P6SM -SHRA VCTS SCT015CB OVC035
     FM220100 VRB03KT P6SM SCT050 BKN150
     FM220600 VRB02KT 1SM BR OVC006
     FM221500 VRB03KT 5SM BR OVC008=



000
FTUS43 KDLH 211600 AAD
TAFHYR
TAF AMD
KHYR 211645Z 2117/2212 VRB06KT P6SM VCSH SCT008 BKN045
      TEMPO 2117/2118 BKN008
     FM212100 14005KT P6SM -SHRA VCTS BKN015CB OVC035
     FM220100 VRB03KT P6SM SCT050 BKN150
     FM220800 11003KT 4SM BR SCT150=



000
FTUS43 KDLH 211600 AAC
TAFHYR
TAF AMD
KHYR 211610Z 2116/2212 VRB06KT P6SM VCSH FEW007 BKN045
     FM211900 15006KT P6SM VCTS SCT015CB OVC045
     FM212100 14005KT 3SM -SHRA BR VCTS BKN015CB OVC035
     FM220100 VRB03KT P6SM SCT050 BKN150
     FM220800 11003KT 4SM BR SCT150=



000
FTUS43 KDLH 211600 AAB
TAFINL
TAF AMD
KINL 211605Z 2116/2212 13009KT P6SM OVC016
     FM212000 12008KT 5SM -SHRA BR VCTS SCT015CB BKN050
     FM220000 14006KT P6SM VCSH BKN015
     FM220400 15005KT 5SM BR VCSH BKN012
     FM220800 13004KT 2SM BR BKN008=



000
FTUS43 KDLH 211600 AAB
TAFDLH
TAF AMD
KDLH 211603Z 2116/2212 09010KT P6SM OVC004
      TEMPO 2116/2119 SCT003 OVC015
     FM211900 08015KT P6SM VCTS BKN015CB OVC035
     FM212100 08012KT 3SM -SHRA VCTS BKN015CB OVC035
     FM220000 06008KT 5SM -DZ BR OVC008
     FM220600 06006KT 1SM BR OVC006=



000
FTUS43 KDLH 211500 AAD
TAFBRD
TAF AMD
KBRD 211526Z 2115/2212 06004KT P6SM OVC010
      TEMPO 2115/2118 SCT012 OVC020
     FM211800 14008KT P6SM VCTS SCT015CB BKN040
     FM212000 14008KT 3SM -SHRA BR VCTS BKN015CB OVC035
     FM212300 13005KT P6SM OVC150
     FM220800 05004KT 4SM BR SCT150=



000
FTUS43 KDLH 211500 AAA
TAFDLH
TAF AMD
KDLH 211522Z 2115/2212 10013KT 4SM BR VCSH BKN003 OVC013
      TEMPO 2115/2117 SCT003 OVC015
     FM211700 07014KT 5SM BR VCSH OVC012
     FM211900 08015KT P6SM VCTS BKN015CB OVC035
     FM212100 08012KT 3SM -SHRA VCTS BKN015CB OVC035
     FM220000 06008KT 5SM -DZ BR OVC008
     FM220600 06006KT 1SM BR OVC006=



000
FTUS43 KDLH 211500 AAB
TAFHYR
TAF AMD
KHYR 211519Z 2115/2212 06003KT P6SM -RA SCT010 BKN060
      TEMPO 2115/2117 BKN010 OVC040
     FM211700 13006KT P6SM VCSH SCT025 OVC040
     FM211900 15006KT P6SM VCTS SCT015CB OVC045
     FM212100 14005KT 3SM -SHRA BR VCTS BKN015CB OVC035
     FM220100 VRB03KT P6SM SCT050 BKN150
     FM220800 11003KT 4SM BR SCT150=



000
FTUS43 KDLH 211400 AAC
TAFBRD
TAF AMD
KBRD 211437Z 2115/2212 14008KT P6SM SCT007 BKN012
      TEMPO 2115/2116 BKN007
     FM211600 14008KT P6SM SCT012 BKN020
     FM211800 14008KT P6SM VCTS SCT015CB BKN040
     FM212000 14008KT 3SM -SHRA BR VCTS BKN015CB OVC035
     FM212300 13005KT P6SM OVC150
     FM220800 05004KT 4SM BR SCT150=



000
FTUS43 KDLH 211400 AAA
TAFHYR
TAF AMD
KHYR 211410Z 2114/2212 06003KT P6SM -RA SCT025 OVC040
      TEMPO 2114/2116 BKN025 OVC040
     FM211600 13006KT P6SM VCSH SCT025 OVC040
     FM211900 15006KT P6SM VCTS SCT015CB OVC045
     FM212100 14005KT 3SM -SHRA BR VCTS BKN015CB OVC035
     FM220100 VRB03KT P6SM SCT050 BKN150
     FM220800 11003KT 4SM BR SCT150=



000
FTUS43 KDLH 211400 AAA
TAFINL
TAF AMD
KINL 211405Z 2114/2212 12007KT P6SM OVC008
      TEMPO 2114/2116 P6SM OVC012
     FM211600 12007KT P6SM VCSH SCT035 BKN080
     FM212000 12008KT 5SM -SHRA BR VCTS SCT015CB BKN050
     FM220000 14006KT P6SM VCSH BKN015
     FM220400 15005KT 5SM BR VCSH BKN012
     FM220800 13004KT 2SM BR BKN008=



000
FTUS43 KDLH 211300 AAA
TAFDLH
TAF AMD
KDLH 211323Z 2113/2212 10010KT 2SM -RA BR OVC002
      TEMPO 2113/2116 1/4SM FG VV002
     FM211600 07011KT 5SM BR VCSH OVC012
     FM211900 08012KT P6SM VCTS BKN015CB OVC035
     FM212100 08012KT 3SM -SHRA VCTS BKN015CB OVC035
     FM220000 06008KT 5SM -DZ BR OVC008
     FM220600 06006KT 1SM BR OVC006=



000
FTUS43 KDLH 211300 AAB
TAFBRD
TAF AMD
KBRD 211319Z 2113/2212 10008KT P6SM VCSH SCT005 BKN050
      TEMPO 2113/2114 14014G22KT P6SM -RA BKN005 OVC040
     FM211400 12008KT P6SM SCT005 OVC040
     FM211800 14008KT P6SM VCTS SCT015CB BKN040
     FM212000 14008KT 3SM -SHRA BR VCTS BKN015CB OVC035
     FM212300 13005KT P6SM OVC150
     FM220800 05004KT 4SM BR SCT150=



000
FTUS43 KDLH 211200 AAA
TAFBRD
TAF AMD
KBRD 211227Z 2112/2212 06005KT 4SM RA BR VCTS SCT013CB BKN035
      TEMPO 2112/2113 2SM -TSRA BR BKN015CB
     FM211300 10008KT P6SM VCSH SCT025 BKN050
     FM211800 14008KT P6SM VCTS SCT015CB BKN040
     FM212000 14008KT 3SM -SHRA BR VCTS BKN015CB OVC035
     FM212300 13005KT P6SM OVC150
     FM220800 05004KT 4SM BR SCT150=



000
FTUS43 KDLH 211100 RRA
TAFINL
TAF
KINL 211146Z 2112/2212 14010KT P6SM SCT005
      TEMPO 2112/2114 5SM BR BKN005
     FM211600 12007KT P6SM VCSH SCT035 BKN080
     FM212000 12008KT 5SM -SHRA BR VCTS SCT015CB BKN050
     FM220000 14006KT P6SM VCSH BKN015
     FM220400 15005KT 5SM BR VCSH BKN012
     FM220800 13004KT 2SM BR BKN008=



000
FTUS43 KDLH 211100 RRA
TAFBRD
TAF
KBRD 211146Z 2112/2212 06005KT 4SM RA BR VCTS SCT013CB BKN025
      TEMPO 2112/2113 2SM -TSRA BR BKN015CB
     FM211300 10008KT P6SM VCSH SCT025 BKN050
     FM211800 14008KT P6SM VCTS SCT015CB BKN040
     FM212000 14008KT 3SM -SHRA BR VCTS BKN015CB OVC035
     FM212300 13005KT P6SM OVC150
     FM220800 05004KT 4SM BR SCT150=



000
FTUS43 KDLH 211100 RRA
TAFHYR
TAF
KHYR 211146Z 2112/2212 00000KT P6SM VCSH SCT025 OVC040
      TEMPO 2112/2113 BKN025
     FM211300 12004KT 5SM -SHRA BR VCTS SCT015CB BKN025
     FM211600 13006KT P6SM VCSH SCT025 OVC040
     FM211900 15006KT P6SM VCTS SCT015CB OVC045
     FM212100 14005KT 3SM -SHRA BR VCTS BKN015CB OVC035
     FM220100 VRB03KT P6SM SCT050 BKN150
     FM220800 11003KT 4SM BR SCT150=



000
FTUS43 KDLH 211100 RRA
TAFDLH
TAF
KDLH 211146Z 2112/2212 08008KT 1/2SM FG OVC002
     FM211300 08008KT 5SM -RA BR VCTS SCT009CB BKN025
      TEMPO 2114/2116 2SM -TSRA BR BKN012CB
     FM211600 07011KT 5SM BR VCSH OVC012
     FM211900 08012KT P6SM VCTS BKN015CB OVC035
     FM212100 08012KT 3SM -SHRA VCTS BKN015CB OVC035
     FM220000 06008KT 5SM -DZ BR OVC008
     FM220600 06006KT 1SM BR OVC006=



000
FTUS43 KDLH 211000 AAB
TAFDLH
TAF AMD
KDLH 211058Z 2111/2206 09008KT 6SM BR BKN002 OVC015
      TEMPO 2111/2113 1/2SM FG OVC002
     FM211500 08009KT 5SM BR VCSH OVC015
     FM211800 08010KT P6SM VCTS OVC050CB
     FM220000 08007KT 3SM -DZ BR OVC002=



000
FTUS43 KDLH 211000 AAC
TAFBRD
TAF AMD
KBRD 211054Z 2111/2206 VRB06KT 5SM -RA BR VCTS SCT015CB BKN040
      TEMPO 2111/2113 3SM -TSRA BR BKN015CB
     FM211300 10008KT P6SM VCSH SCT025 OVC050
     FM211700 10006KT P6SM VCTS SCT016 OVC050CB
     FM211900 12005KT 4SM -TSRA BR OVC050CB
     FM212300 VRB03KT P6SM OVC250
     FM220200 VRB02KT 4SM BR OVC100=



000
FTUS43 KDLH 211000 AAB
TAFBRD
TAF AMD
KBRD 211010Z 2110/2206 VRB06KT P6SM VCTS SCT025CB BKN050
      TEMPO 2110/2113 3SM -TSRA BR BKN015CB
     FM211300 10008KT P6SM VCSH SCT040 OVC120
     FM211700 10006KT P6SM VCTS SCT016 OVC050CB
     FM211900 12005KT 4SM -TSRA BR OVC050CB
     FM212300 VRB03KT P6SM OVC250
     FM220200 VRB02KT 4SM BR OVC100=



000
FTUS43 KDLH 210800 AAA
TAFDLH
TAF AMD
KDLH 210855Z 2109/2206 09008KT 6SM BR BKN002 OVC015
      TEMPO 2109/2112 1SM BR OVC002
     FM211500 08009KT 5SM BR VCSH OVC015
     FM211800 08010KT P6SM VCTS OVC050CB
     FM220000 08007KT 3SM -DZ BR OVC002=



000
FTUS43 KDLH 210800 AAA
TAFBRD
TAF AMD
KBRD 210854Z 2109/2206 VRB06KT P6SM VCTS SCT025CB BKN050
      TEMPO 2109/2113 3SM -TSRA BR BKN025CB
     FM211300 10008KT P6SM VCSH SCT040 OVC120
     FM211700 10006KT P6SM VCTS SCT016 OVC050CB
     FM211900 12005KT 4SM -TSRA BR OVC050CB
     FM212300 VRB03KT P6SM OVC250
     FM220200 VRB02KT 4SM BR OVC100=



000
FTUS43 KDLH 210800 AAB
TAFHYR
TAF AMD
KHYR 210853Z 2109/2206 00000KT P6SM SCT017 BKN060
     FM211200 VRB04KT P6SM SCT040 BKN120
     FM211500 13005KT P6SM VCSH OVC040
     FM211800 14005KT P6SM -RA VCTS OVC045CB
     FM220100 VRB03KT 4SM -DZ BR SCT045 BKN250=



000
FTUS43 KDLH 210500 AAA
TAFHYR
TAF AMD
KHYR 210557Z 2106/2206 00000KT 6SM BR BKN250
      TEMPO 2106/2109 1SM BR
     FM210900 VRB02KT P6SM SCT017 BKN040
     FM211200 VRB04KT P6SM SCT040 BKN120
     FM211500 13005KT P6SM VCSH OVC040
     FM211800 14005KT P6SM -RA VCTS OVC045CB
     FM220100 VRB03KT 4SM -DZ BR SCT045 BKN250=



000
FTUS43 KDLH 210500
TAFBRD
TAF
KBRD 210539Z 2106/2206 VRB05KT P6SM SCT040 BKN250
     FM211200 10008KT P6SM VCSH SCT040 OVC120
     FM211700 10006KT P6SM VCTS SCT016 OVC050CB
     FM211900 12005KT 4SM -TSRA BR OVC050CB
     FM212300 VRB03KT P6SM OVC250
     FM220200 VRB02KT 4SM BR OVC100=



000
FTUS43 KDLH 210500
TAFHYR
TAF
KHYR 210539Z 2106/2206 00000KT 3SM BR BKN250
      TEMPO 2106/2109 1SM BR
     FM210900 VRB02KT P6SM SCT017 BKN040
     FM211200 VRB04KT P6SM SCT040 BKN120
     FM211500 13005KT P6SM VCSH OVC040
     FM211800 14005KT P6SM -RA VCTS OVC045CB
     FM220100 VRB03KT 4SM -DZ BR SCT045 BKN250=



000
FTUS43 KDLH 210500
TAFINL
TAF
KINL 210539Z 2106/2206 VRB04KT P6SM BKN250
     FM211200 14006KT P6SM SCT100 BKN250
     FM211600 12007KT P6SM VCSH BKN100
     FM211900 12005KT P6SM VCTS SCT045CB BKN100
     FM220000 12004KT 4SM BR BKN250=



000
FTUS43 KDLH 210500
TAFDLH
TAF
KDLH 210539Z 2106/2206 09008KT 3SM BR SCT002 BKN015
      TEMPO 2106/2109 1SM BR OVC002
     FM210900 08006KT 1 1/2SM BR SCT003 OVC006
     FM211500 08009KT 5SM BR VCSH OVC015
     FM211800 08010KT P6SM VCTS OVC050CB
     FM220000 08007KT 3SM -DZ BR OVC002=



000
FTUS43 KDLH 210400 AAA
TAFHYR
TAF AMD
KHYR 210412Z 2104/2124 00000KT 1 1/2SM BR BKN250
     FM210600 VRB02KT 5SM BR SCT017 BKN045
     FM210800 VRB02KT 1 1/2SM BR SCT004 OVC008
     FM211200 VRB04KT 5SM BR VCSH SCT008 OVC035
     FM211500 13005KT P6SM VCSH OVC035
     FM211800 14005KT P6SM -RA VCTS OVC035CB=



000
FTUS43 KDLH 202300
TAFHYR
TAF
KHYR 202337Z 2100/2124 VRB04KT P6SM BKN035
     FM210600 VRB02KT 5SM BR SCT008 OVC015
     FM210800 VRB02KT 1 1/2SM BR SCT004 OVC008
     FM211200 VRB04KT 5SM BR VCSH SCT008 OVC035
     FM211500 13005KT P6SM VCSH OVC035
     FM211800 14005KT P6SM -RA VCTS OVC035CB=



000
FTUS43 KDLH 202300
TAFBRD
TAF
KBRD 202337Z 2100/2124 13005KT P6SM BKN250
     FM211200 10008KT P6SM VCSH SCT016 OVC120
     FM211500 10008KT P6SM -RA VCTS SCT016 OVC050CB
     FM211900 15004KT P6SM -TSRA OVC016CB=



000
FTUS43 KDLH 202300
TAFINL
TAF
KINL 202337Z 2100/2124 13005KT P6SM BKN250
     FM210800 12004KT P6SM SCT015 OVC050
     FM211200 12007KT P6SM SCT050 BKN250=



000
FTUS43 KDLH 202300
TAFDLH
TAF
KDLH 202337Z 2100/2124 10005KT P6SM BKN035
     FM210300 08006KT P6SM SCT012 BKN050
     FM210600 VRB04KT 3SM BR SCT008 OVC015
     FM210800 VRB03KT 1 1/2SM BR SCT004 OVC008
     FM211500 08009KT 5SM BR VCSH OVC015 PROB30 2118/2124 -TSRA
      BKN050CB=



000
FTUS43 KDLH 202200 AAE
TAFBRD
TAF AMD
KBRD 202202Z 2022/2118 VRB05KT P6SM BKN250
     FM210500 11008KT P6SM VCSH SCT030 OVC050
     FM210800 12009KT 5SM BR VCSH SCT015 OVC035=



000
FTUS43 KDLH 202200 AAB
TAFDLH
TAF AMD
KDLH 202200Z 2022/2118 14007KT P6SM BKN035
     FM210300 10006KT 5SM BR SCT012 BKN050
     FM210500 VRB04KT 3SM BR SCT008 OVC015
     FM210800 VRB03KT 1 1/2SM BR SCT004 OVC008
     FM211500 08005KT 5SM BR VCSH OVC015=



000
FTUS43 KDLH 202100 AAD
TAFBRD
TAF AMD
KBRD 202131Z 2022/2118 VRB05KT P6SM SCT030 BKN045
      TEMPO 2022/2023 BKN030
     FM210500 11008KT P6SM VCSH SCT030 OVC050
     FM210800 12009KT 5SM BR VCSH SCT015 OVC035=



000
FTUS43 KDLH 202000 AAC
TAFBRD
TAF AMD
KBRD 202017Z 2020/2118 VRB05KT P6SM SCT030 BKN045
     FM210500 11008KT P6SM VCSH SCT030 OVC050
     FM210800 12009KT 5SM BR VCSH SCT015 OVC035=



000
FTUS43 KDLH 202000 AAA
TAFDLH
TAF AMD
KDLH 202007Z 2020/2118 13006KT P6SM OVC025
     FM202300 12007KT P6SM SCT025 BKN035
     FM210300 10006KT 5SM BR SCT012 BKN050
     FM210500 VRB04KT 3SM BR SCT008 OVC015
     FM210800 VRB03KT 1 1/2SM BR SCT004 OVC008
     FM211500 08005KT 5SM BR VCSH OVC015=



000
FTUS43 KDLH 202000 AAA
TAFHYR
TAF AMD
KHYR 202007Z 2020/2118 VRB04KT P6SM OVC025
     FM202300 VRB03KT P6SM SCT025 BKN035
     FM210600 VRB02KT 5SM BR SCT008 OVC015
     FM210800 VRB02KT 1 1/2SM BR SCT004 OVC008
     FM211200 VRB04KT 5SM BR VCSH SCT008 OVC035=



000
FTUS43 KDLH 201900 AAB
TAFBRD
TAF AMD
KBRD 201913Z 2019/2118 VRB05KT P6SM SCT025
      TEMPO 2019/2021 BKN025
     FM202100 VRB05KT P6SM SCT030 BKN040
     FM210500 11008KT P6SM VCSH SCT030 OVC050
     FM210800 12009KT 5SM BR VCSH SCT015 OVC035=



000
FTUS43 KDLH 201900 AAA
TAFINL
TAF AMD
KINL 201909Z 2019/2118 10010KT P6SM SCT030 BKN040
     FM210800 12004KT 5SM BR SCT015 OVC050
     FM211100 VRB03KT 5SM BR VCSH SCT008 OVC015=



000
FTUS43 KDLH 201800 AAA
TAFBRD
TAF AMD
KBRD 201838Z 2019/2118 VRB05KT P6SM SCT025
     FM202000 VRB05KT P6SM SCT030 BKN050
     FM210500 11008KT P6SM VCSH SCT030 OVC050
     FM210800 12009KT 5SM BR VCSH SCT015 OVC035=



000
FTUS43 KDLH 201700
TAFDLH
TAF
KDLH 201738Z 2018/2118 19006KT P6SM OVC025
     FM202100 12007KT P6SM SCT025 BKN035
     FM210300 10006KT 5SM BR SCT012 BKN050
     FM210500 VRB04KT 3SM BR SCT008 OVC015
     FM210800 VRB03KT 1 1/2SM BR SCT004 OVC008
     FM211500 08005KT 5SM BR VCSH OVC015=



000
FTUS43 KDLH 201700
TAFBRD
TAF
KBRD 201738Z 2018/2118 VRB05KT P6SM SCT015 BKN025
     FM202000 VRB05KT P6SM SCT015 BKN035
     FM210500 11008KT P6SM VCSH SCT030 OVC050
     FM210800 12009KT 5SM BR VCSH SCT015 OVC035=



000
FTUS43 KDLH 201700
TAFINL
TAF
KINL 201738Z 2018/2118 VRB05KT P6SM SCT030 BKN040
     FM210800 12004KT 5SM BR SCT015 OVC050
     FM211100 VRB03KT 5SM BR VCSH SCT008 OVC015=



000
FTUS43 KDLH 201700
TAFHYR
TAF
KHYR 201738Z 2018/2118 VRB04KT P6SM SCT010 OVC025
     FM202000 VRB04KT P6SM SCT015 BKN035
     FM210600 VRB02KT 5SM BR SCT008 OVC015
     FM210800 VRB02KT 1 1/2SM BR SCT004 OVC008
     FM211200 VRB04KT 5SM BR VCSH SCT008 OVC035=



000
FTUS43 KDLH 201700 AAD
TAFBRD
TAF AMD
KBRD 201707Z 2017/2112 VRB05KT P6SM BKN025
     FM201900 VRB05KT P6SM SCT025 BKN035
     FM210500 11008KT P6SM VCSH SCT050 OVC110
     FM210800 12009KT 5SM BR VCSH BKN035 OVC080=



000
FTUS43 KDLH 201600 AAB
TAFINL
TAF AMD
KINL 201700Z 2017/2112 13004KT P6SM BKN030
     FM201800 13005KT P6SM SCT030 BKN040
     FM210900 12004KT 6SM BR BKN050 OVC120=



000
FTUS43 KDLH 201600 AAC
TAFHYR
TAF AMD
KHYR 201610Z 2016/2112 VRB04KT P6SM SCT010 OVC025
     FM201900 VRB03KT P6SM SKC
     FM210600 10002KT 5SM BR OVC008=



000
FTUS43 KDLH 201600 AAC
TAFBRD
TAF AMD
KBRD 201609Z 2016/2112 VRB05KT P6SM SCT015
     FM210500 11008KT P6SM VCSH SCT050 OVC110
     FM210800 12009KT 5SM BR VCSH BKN035 OVC080=



000
FTUS43 KDLH 201500 AAB
TAFDLH
TAF AMD
KDLH 201534Z 2016/2112 VRB06KT P6SM SCT010 BKN015
      TEMPO 2017/2018 SCT015 BKN030
     FM201800 10006KT P6SM SCT015 BKN035
     FM210400 10006KT 6SM BR SCT012 BKN050
     FM210700 10006KT 3SM BR SCT006 BKN012=



000
FTUS43 KDLH 201400 AAB
TAFBRD
TAF AMD
KBRD 201422Z 2014/2112 12004KT P6SM SCT012 BKN025
     FM201700 12004KT P6SM SCT012
     FM210500 11008KT P6SM VCSH SCT050 OVC110
     FM210800 12009KT 5SM BR VCSH BKN035 OVC080=



000
FTUS43 KDLH 201400 AAA
TAFDLH
TAF AMD
KDLH 201408Z 2014/2112 VRB04KT P6SM OVC004
      TEMPO 2015/2016 SCT004 BKN010
     FM201600 10006KT P6SM SCT008 BKN015
     FM201800 10006KT P6SM SCT015 BKN035
     FM210400 10006KT 6SM BR SCT012 BKN050
     FM210700 10006KT 3SM BR SCT006 BKN012=



000
FTUS43 KDLH 201300 AAB
TAFHYR
TAF AMD
KHYR 201354Z 2014/2112 VRB04KT P6SM SCT005 BKN025
     FM201500 VRB04KT P6SM SCT005 BKN035
     FM201900 14003KT P6SM SKC
     FM210600 10002KT 5SM BR OVC008=



000
FTUS43 KDLH 201100 AAA
TAFBRD
TAF AMD
KBRD 201158Z 2012/2112 00000KT 1/2SM FG VV002
      TEMPO 2012/2013 3SM BR SCT004 BKN040
     FM201300 12004KT P6SM SCT012
     FM210500 11008KT P6SM VCSH SCT050 OVC110
     FM210800 12009KT 5SM BR VCSH BKN035 OVC080=



000
FTUS43 KDLH 201100 AAA
TAFINL
TAF AMD
KINL 201158Z 2012/2112 00000KT 2SM BR SCT002 BKN025
      TEMPO 2012/2013 4SM BR
     FM201300 13003KT 4SM BR SCT012
     FM201400 13004KT P6SM SKC
     FM210900 12004KT 6SM BR BKN050 OVC120=



000
FTUS43 KDLH 201100 AAA
TAFHYR
TAF AMD
KHYR 201145Z 2012/2112 00000KT P6SM SCT005 OVC025
      TEMPO 2012/2015 6SM BR BKN005
     FM201500 00000KT P6SM BKN035
     FM201900 14003KT P6SM SKC
     FM210600 10002KT 5SM BR OVC008=



000
FTUS43 KDLH 201100
TAFDLH
TAF
KDLH 201120Z 2012/2112 32003KT 6SM BR OVC003
      TEMPO 2012/2013 2SM BR SCT003
     FM201400 12003KT P6SM SCT007
     FM210400 10006KT 6SM BR SCT012 BKN050
     FM210700 10006KT 3SM BR SCT006 BKN012=



000
FTUS43 KDLH 201100
TAFINL
TAF
KINL 201120Z 2012/2112 00000KT 1/4SM FG VV001
      TEMPO 2012/2013 2SM BR OVC002
     FM201300 13003KT 4SM BR SCT012
     FM201400 13004KT P6SM SKC
     FM210900 12004KT 6SM BR BKN050 OVC120=



000
FTUS43 KDLH 201100
TAFBRD
TAF
KBRD 201120Z 2012/2112 00000KT 1/4SM FG VV001
      TEMPO 2012/2013 3SM BR SCT004 BKN040
     FM201300 12004KT P6SM SCT012
     FM210500 11008KT P6SM VCSH SCT050 OVC110
     FM210800 12009KT 5SM BR VCSH BKN035 OVC080=



000
FTUS43 KDLH 201100
TAFHYR
TAF
KHYR 201120Z 2012/2112 00000KT P6SM SCT005 OVC025
      TEMPO 2012/2015 6SM BR BKN005
     FM201500 00000KT P6SM BKN015
     FM201900 14003KT P6SM SKC
     FM210600 10002KT 5SM BR OVC008=



000
FTUS43 KDLH 201000 AAB
TAFDLH
TAF AMD
KDLH 201048Z 2011/2106 VRB03KT 1/4SM FG OVC002
      TEMPO 2011/2012 6SM BR OVC003
     FM201200 VRB03KT 3SM BR SCT003
     FM201400 12004KT P6SM SCT009
     FM201600 11006KT P6SM SKC
     FM202300 08007KT P6SM BKN250=



000
FTUS43 KDLH 201000 AAB
TAFBRD
TAF AMD
KBRD 201001Z 2010/2106 00000KT 1/2SM FG OVC002
      TEMPO 2010/2013 3SM BR SCT004 BKN040
     FM201400 12004KT P6SM SCT015
     FM201600 14007KT P6SM SKC
     FM210200 11008KT P6SM OVC110=



000
FTUS43 KDLH 200900 AAA
TAFBRD
TAF AMD
KBRD 200942Z 2010/2106 00000KT 3SM BR SCT004 BKN040
      TEMPO 2010/2013 1SM BR OVC001
     FM201400 12004KT P6SM SCT015
     FM201600 14007KT P6SM SKC
     FM210200 11008KT P6SM OVC110=



000
FTUS43 KDLH 200800 AAB
TAFINL
TAF AMD
KINL 200856Z 2009/2106 00000KT 3SM BR SKC
      TEMPO 2009/2013 1/2SM FG OVC001
     FM201400 11005KT P6SM SCT015
     FM201600 13005KT P6SM SKC=



000
FTUS43 KDLH 200800 AAA
TAFHYR
TAF AMD
KHYR 200854Z 2009/2106 02004KT 6SM BR OVC004
      TEMPO 2009/2012 1SM BR OVC002
     FM201400 00000KT P6SM SCT015
     FM201800 10004KT P6SM SKC=



000
FTUS43 KDLH 200700 AAA
TAFDLH
TAF AMD
KDLH 200742Z 2008/2106 VRB03KT 1/4SM FG OVC002
      TEMPO 2009/2012 3SM BR OVC003
     FM201200 VRB03KT 3SM BR SCT003
     FM201400 12004KT P6SM SCT009
     FM201600 11006KT P6SM SKC
     FM202300 08007KT P6SM BKN250=



000
FTUS43 KDLH 200700 AAA
TAFINL
TAF AMD
KINL 200740Z 2008/2106 00000KT 3SM BR SKC
      TEMPO 2008/2010 1/2SM FG
     FM201000 00000KT 3SM BR SCT004 OVC007
      TEMPO 2010/2013 1/2SM FG OVC003
     FM201400 11005KT P6SM SCT015
     FM201600 13005KT P6SM SKC=



    US Dept of Commerce
    National Oceanic and Atmospheric Administration
    National Weather Service
    1325 East West Highway
    Silver Spring, MD 20910
    Page Author: NWS Internet Services Team
Disclaimer
Information Quality
Credits
Glossary
Privacy Policy
Freedom of Information Act (FOIA)
About Us
Career Opportunities